Time;durP1;ratioP1;P1;durP2;ratioP2;P2;SDS_P1;SDS_P2;PMS_P1;PMS_P2;Temp;Humidity;BMP_temperature;BMP_pressure;BME280_temperature;BME280_humidity;BME280_pressure;Samples;Min_cycle;Max_cycle;Signal;HPM_P1;HPM_P2
2021/12/08 00:00:01;;;;;;;;;;;;;;;;;;4164064;28;7471;-51
2021/12/08 00:02:37;;;;;;;;;;;;;;;;;;4164047;28;7155;-51
2021/12/08 00:04:59;;;;;;;;;;;;;;;;;;4164205;28;7007;-51
2021/12/08 00:07:20;;;;;;;;;;;;;;;;;;4164132;28;7486;-51
2021/12/08 00:10:00;;;;;;;;;;;;;;;;;;4163936;28;7002;-51
2021/12/08 00:15:01;;;;;;;;;;;;;;;;;;4163987;28;7014;-51
2021/12/08 00:17:22;;;;;;;;;;;;;;;;;;4164018;28;7011;-51
2021/12/08 00:19:44;;;;;;;;;;;;;;;;;;4163769;28;7019;-52
2021/12/08 00:22:05;;;;;;;;;;;;;;;;;;4163874;28;7030;-51
2021/12/08 00:24:26;;;;;;;;;;;;;;;;;;4163878;28;7013;-51
2021/12/08 00:26:48;;;;;;;;;;;;;;;;;;4164099;28;7078;-51
2021/12/08 00:29:10;;;;;;;;;;;;;;;;;;4163918;28;7013;-51
2021/12/08 00:31:33;;;;;;;;;;;;;;;;;;4163847;28;7002;-51
2021/12/08 00:33:55;;;;;;;;;;;;;;;;;;4164097;28;7053;-52
2021/12/08 00:36:18;;;;;;;;;;;;;;;;;;4164055;28;7128;-51
2021/12/08 00:38:39;;;;;;;;;;;;;;;;;;4164056;28;7138;-51
2021/12/08 00:41:01;;;;;;;;;;;;;;;;;;4164038;28;7029;-51
2021/12/08 00:43:23;;;;;;;;;;;;;;;;;;4163873;28;7019;-51
2021/12/08 00:45:45;;;;;;;;;;;;;;;;;;4163883;28;7049;-51
2021/12/08 00:48:06;;;;;;;;;;;;;;;;;;4163755;28;7125;-52
2021/12/08 00:50:28;;;;;;;;;;;;;;;;;;4163811;28;6963;-51
2021/12/08 00:52:51;;;;;;;;;;;;;;;;;;4164067;28;7007;-52
2021/12/08 00:55:13;;;;;;;;;;;;;;;;;;4163649;28;7187;-51
2021/12/08 00:57:34;;;;;;;;;;;;;;;;;;4163995;28;7239;-51
2021/12/08 00:59:55;;;;;;;;;;;;;;;;;;4166124;28;7007;-51
2021/12/08 01:02:18;;;;;;;;;;;;;;;;;;4165504;28;7053;-50
2021/12/08 01:04:39;;;;;;;;;;;;;;;;;;4165728;28;7371;-51
2021/12/08 01:07:00;;;;;;;;;;;;;;;;;;4166729;28;6990;-51
2021/12/08 01:09:21;;;;;;;;;;;;;;;;;;4166521;28;7002;-51
2021/12/08 01:11:43;;;;;;;;;;;;;;;;;;4166372;28;7006;-52
2021/12/08 01:14:04;;;;;;;;;;;;;;;;;;4166774;28;7021;-50
2021/12/08 01:16:26;;;;;;;;;;;;;;;;;;4180490;28;7172;-50
2021/12/08 01:18:48;;;;;;;;;;;;;;;;;;4182783;28;7029;-51
2021/12/08 01:21:10;;;;;;;;;;;;;;;;;;4182748;28;7177;-50
2021/12/08 01:23:31;;;;;;;;;;;;;;;;;;4182768;28;7029;-51
2021/12/08 01:25:53;;;;;;;;;;;;;;;;;;4183041;28;7117;-51
2021/12/08 01:28:16;;;;;;;;;;;;;;;;;;4182915;28;7049;-51
2021/12/08 01:30:38;;;;;;;;;;;;;;;;;;4182435;28;7018;-51
2021/12/08 01:32:59;;;;;;;;;;;;;;;;;;4182694;28;6970;-51
2021/12/08 01:35:21;;;;;;;;;;;;;;;;;;4182507;28;7463;-51
2021/12/08 01:37:42;;;;;;;;;;;;;;;;;;4182407;28;7197;-51
2021/12/08 01:40:04;;;;;;;;;;;;;;;;;;4182695;28;7002;-50
2021/12/08 01:42:30;;;;;;;;;;;;;;;;;;4181131;28;7190;-51
2021/12/08 01:47:31;;;;;;;;;;;;;;;;;;4182574;28;6970;-51
2021/12/08 01:49:52;;;;;;;;;;;;;;;;;;4182302;28;6966;-52
2021/12/08 01:52:14;;;;;;;;;;;;;;;;;;4182260;28;7065;-51
2021/12/08 01:54:36;;;;;;;;;;;;;;;;;;4182499;28;7184;-51
2021/12/08 01:57:00;;;;;;;;;;;;;;;;;;4182434;28;7267;-53
2021/12/08 01:59:21;;;;;;;;;;;;;;;;;;4181727;28;7014;-51
2021/12/08 02:01:46;;;;;;;;;;;;;;;;;;4181810;28;6989;-51
2021/12/08 02:04:07;;;;;;;;;;;;;;;;;;4181661;28;7159;-51
2021/12/08 02:06:28;;;;;;;;;;;;;;;;;;4181734;28;6998;-51
2021/12/08 02:08:52;;;;;;;;;;;;;;;;;;4181618;28;7065;-50
2021/12/08 02:11:13;;;;;;;;;;;;;;;;;;4181377;28;7002;-51
2021/12/08 02:13:37;;;;;;;;;;;;;;;;;;4180144;28;7510;-51
2021/12/08 02:16:00;;;;;;;;;;;;;;;;;;4181812;28;7033;-52
2021/12/08 02:18:22;;;;;;;;;;;;;;;;;;4181755;28;7208;-50
2021/12/08 02:20:43;;;;;;;;;;;;;;;;;;4181432;28;6973;-51
2021/12/08 02:23:06;;;;;;;;;;;;;;;;;;4181302;28;7482;-51
2021/12/08 02:25:28;;;;;;;;;;;;;;;;;;4181486;28;7040;-52
2021/12/08 02:27:50;;;;;;;;;;;;;;;;;;4181410;28;7693;-51
2021/12/08 02:30:16;;;;;;;;;;;;;;;;;;4181065;28;7108;-51
2021/12/08 02:48:29;;;;;;;;;;;;;;;;;;4181564;28;6993;-51
2021/12/08 02:50:50;;;;;;;;;;;;;;;;;;4181099;28;7064;-51
2021/12/08 02:53:12;;;;;;;;;;;;;;;;;;4181462;28;7006;-51
2021/12/08 02:55:35;;;;;;;;;;;;;;;;;;4181093;28;7006;-51
2021/12/08 02:57:56;;;;;;;;;;;;;;;;;;4181110;28;6998;-50
2021/12/08 03:00:18;;;;;;;;;;;;;;;;;;4181138;28;7041;-50
2021/12/08 03:02:39;;;;;;;;;;;;;;;;;;4181165;28;7006;-51
2021/12/08 03:05:01;;;;;;;;;;;;;;;;;;4181149;28;6978;-51
2021/12/08 03:07:22;;;;;;;;;;;;;;;;;;4181283;28;6990;-51
2021/12/08 03:09:43;;;;;;;;;;;;;;;;;;4180989;28;7019;-52
2021/12/08 03:12:06;;;;;;;;;;;;;;;;;;4181276;28;6982;-52
2021/12/08 03:14:29;;;;;;;;;;;;;;;;;;4181374;28;7194;-51
2021/12/08 03:16:51;;;;;;;;;;;;;;;;;;4180977;28;7006;-51
2021/12/08 03:19:12;;;;;;;;;;;;;;;;;;4180938;28;7169;-51
2021/12/08 03:21:34;;;;;;;;;;;;;;;;;;4179998;28;7006;-51
2021/12/08 03:24:07;;;;;;;;;;;;;;;;;;4180730;28;7051;-52
2021/12/08 03:26:32;;;;;;;;;;;;;;;;;;4180896;28;7161;-51
2021/12/08 03:29:00;;;;;;;;;;;;;;;;;;4180503;28;7271;-51
2021/12/08 03:31:28;;;;;;;;;;;;;;;;;;4181014;28;6978;-51
2021/12/08 03:33:50;;;;;;;;;;;;;;;;;;4180934;28;7132;-52
2021/12/08 03:36:11;;;;;;;;;;;;;;;;;;4180553;28;7097;-51
2021/12/08 03:38:32;;;;;;;;;;;;;;;;;;4180693;28;7014;-51
2021/12/08 03:40:56;;;;;;;;;;;;;;;;;;4180866;28;7002;-51
2021/12/08 03:43:17;;;;;;;;;;;;;;;;;;4180480;28;7022;-51
2021/12/08 03:45:45;;;;;;;;;;;;;;;;;;4180652;28;7002;-51
2021/12/08 03:48:06;;;;;;;;;;;;;;;;;;4180648;28;7069;-51
2021/12/08 03:50:28;;;;;;;;;;;;;;;;;;4180277;28;7039;-51
2021/12/08 03:52:49;;;;;;;;;;;;;;;;;;4180590;28;7222;-51
2021/12/08 03:55:12;;;;;;;;;;;;;;;;;;4180628;28;7029;-51
2021/12/08 03:57:33;;;;;;;;;;;;;;;;;;4179815;28;7009;-51
2021/12/08 03:59:54;;;;;;;;;;;;;;;;;;4180689;28;7422;-51
2021/12/08 04:02:17;;;;;;;;;;;;;;;;;;4180585;28;7139;-51
2021/12/08 04:04:44;;;;;;;;;;;;;;;;;;4180669;28;6954;-51
2021/12/08 04:07:05;;;;;;;;;;;;;;;;;;4180411;28;6995;-51
2021/12/08 04:09:32;;;;;;;;;;;;;;;;;;4180573;28;7018;-51
2021/12/08 04:11:53;;;;;;;;;;;;;;;;;;4180439;28;7136;-51
2021/12/08 04:14:16;;;;;;;;;;;;;;;;;;4180288;28;7015;-51
2021/12/08 04:16:37;;;;;;;;;;;;;;;;;;4180625;28;7006;-51
2021/12/08 04:19:00;;;;;;;;;;;;;;;;;;4180362;28;7023;-51
2021/12/08 04:21:22;;;;;;;;;;;;;;;;;;4180474;28;7489;-51
2021/12/08 04:23:43;;;;;;;;;;;;;;;;;;4180647;28;6982;-51
2021/12/08 04:26:05;;;;;;;;;;;;;;;;;;4180690;28;7061;-51
2021/12/08 04:28:27;;;;;;;;;;;;;;;;;;4180297;28;7010;-51
2021/12/08 04:30:49;;;;;;;;;;;;;;;;;;4180283;28;7018;-51
2021/12/08 04:33:10;;;;;;;;;;;;;;;;;;4182097;28;6998;-51
2021/12/08 04:35:33;;;;;;;;;;;;;;;;;;4183762;28;7002;-52
2021/12/08 04:37:58;;;;;;;;;;;;;;;;;;4183602;28;7006;-51
2021/12/08 04:40:25;;;;;;;;;;;;;;;;;;4183394;28;7022;-51
2021/12/08 04:42:58;;;;;;;;;;;;;;;;;;4183604;28;7127;-51
2021/12/08 04:45:26;;;;;;;;;;;;;;;;;;4183596;28;6981;-51
2021/12/08 04:48:07;;;;;;;;;;;;;;;;;;4183186;28;7194;-51
2021/12/08 04:50:35;;;;;;;;;;;;;;;;;;4183351;28;6986;-51
2021/12/08 04:53:05;;;;;;;;;;;;;;;;;;4181489;28;7112;-51
2021/12/08 05:01:12;;;;;;;;;;;;;;;;;;4170300;28;6986;-51
2021/12/08 05:03:47;;;;;;;;;;;;;;;;;;4166356;28;7041;-52
2021/12/08 05:06:20;;;;;;;;;;;;;;;;;;4166638;28;6994;-51
2021/12/08 05:08:43;;;;;;;;;;;;;;;;;;4166407;28;7167;-51
2021/12/08 05:11:04;;;;;;;;;;;;;;;;;;4166027;28;7140;-51
2021/12/08 05:13:26;;;;;;;;;;;;;;;;;;4166435;28;7135;-51
2021/12/08 05:15:49;;;;;;;;;;;;;;;;;;4166413;28;7163;-51
2021/12/08 05:18:10;;;;;;;;;;;;;;;;;;4166650;28;6990;-51
2021/12/08 05:20:33;;;;;;;;;;;;;;;;;;4166510;28;7022;-53
2021/12/08 05:22:55;;;;;;;;;;;;;;;;;;4166490;28;7046;-51
2021/12/08 05:25:20;;;;;;;;;;;;;;;;;;4166276;28;7055;-51
2021/12/08 05:27:44;;;;;;;;;;;;;;;;;;4166381;28;7057;-51
2021/12/08 05:30:06;;;;;;;;;;;;;;;;;;4166222;28;7113;-51
2021/12/08 05:32:28;;;;;;;;;;;;;;;;;;4166130;28;7006;-53
2021/12/08 05:34:49;;;;;;;;;;;;;;;;;;4166301;28;7014;-50
2021/12/08 05:37:10;;;;;;;;;;;;;;;;;;4166085;28;7134;-51
2021/12/08 05:39:32;;;;;;;;;;;;;;;;;;4166154;28;7383;-51
2021/12/08 05:41:57;;;;;;;;;;;;;;;;;;4165933;28;7002;-51
2021/12/08 05:44:18;;;;;;;;;;;;;;;;;;4165446;28;7006;-53
2021/12/08 05:46:42;;;;;;;;;;;;;;;;;;4166136;28;7241;-51
2021/12/08 05:49:03;;;;;;;;;;;;;;;;;;4165849;28;7006;-51
2021/12/08 05:51:25;;;;;;;;;;;;;;;;;;4165777;28;7362;-51
2021/12/08 05:53:48;;;;;;;;;;;;;;;;;;4165971;28;7010;-51
2021/12/08 05:56:09;;;;;;;;;;;;;;;;;;4165927;28;7407;-53
2021/12/08 05:58:32;;;;;;;;;;;;;;;;;;4165935;28;7124;-51
2021/12/08 06:00:54;;;;;;;;;;;;;;;;;;4165712;28;7061;-51
2021/12/08 06:03:16;;;;;;;;;;;;;;;;;;4165911;28;7139;-50
2021/12/08 06:05:38;;;;;;;;;;;;;;;;;;4165535;28;7158;-52
2021/12/08 06:07:59;;;;;;;;;;;;;;;;;;4165515;28;7074;-52
2021/12/08 06:10:21;;;;;;;;;;;;;;;;;;4165461;28;7007;-51
2021/12/08 06:12:43;;;;;;;;;;;;;;;;;;4164273;28;7003;-51
2021/12/08 06:15:06;;;;;;;;;;;;;;;;;;4165482;28;7010;-50
2021/12/08 06:17:27;;;;;;;;;;;;;;;;;;4165377;28;7002;-51
2021/12/08 06:19:49;;;;;;;;;;;;;;;;;;4165632;28;7422;-51
2021/12/08 06:22:11;;;;;;;;;;;;;;;;;;4165241;28;7316;-51
2021/12/08 06:24:32;;;;;;;;;;;;;;;;;;4165577;28;6986;-51
2021/12/08 06:26:54;;;;;;;;;;;;;;;;;;4165436;28;7006;-51
2021/12/08 06:29:15;;;;;;;;;;;;;;;;;;4165161;28;7148;-51
2021/12/08 06:31:38;;;;;;;;;;;;;;;;;;4165534;28;7006;-52
2021/12/08 06:33:59;;;;;;;;;;;;;;;;;;4149826;28;7212;-51
2021/12/08 06:36:21;;;;;;;;;;;;;;;;;;4165205;28;7108;-51
2021/12/08 06:38:42;;;;;;;;;;;;;;;;;;4165312;28;7679;-51
2021/12/08 06:41:04;;;;;;;;;;;;;;;;;;4165148;28;7006;-51
2021/12/08 06:43:26;;;;;;;;;;;;;;;;;;4165185;28;7274;-51
2021/12/08 06:45:48;;;;;;;;;;;;;;;;;;4165218;28;7019;-51
2021/12/08 06:48:12;;;;;;;;;;;;;;;;;;4165133;28;7002;-51
2021/12/08 06:50:34;;;;;;;;;;;;;;;;;;4164901;28;7041;-50
2021/12/08 06:52:55;;;;;;;;;;;;;;;;;;4164886;28;7041;-51
2021/12/08 06:55:18;;;;;;;;;;;;;;;;;;4165199;28;6983;-52
2021/12/08 06:57:40;;;;;;;;;;;;;;;;;;4164167;28;7384;-50
2021/12/08 07:00:15;;;;;;;;;;;;;;;;;;4164722;28;7266;-51
2021/12/08 07:02:53;;;;;;;;;;;;;;;;;;4164723;28;7014;-51
2021/12/08 07:05:27;;;;;;;;;;;;;;;;;;4164605;28;7049;-52
2021/12/08 07:07:48;;;;;;;;;;;;;;;;;;4164877;28;7003;-51
2021/12/08 07:10:10;;;;;;;;;;;;;;;;;;4164549;28;7041;-51
2021/12/08 07:12:32;;;;;;;;;;;;;;;;;;4164710;28;7011;-51
2021/12/08 07:14:55;;;;;;;;;;;;;;;;;;4164649;28;7010;-51
2021/12/08 07:17:19;;;;;;;;;;;;;;;;;;4164608;28;7163;-51
2021/12/08 07:19:45;;;;;;;;;;;;;;;;;;4164415;28;7156;-51
2021/12/08 07:22:08;;;;;;;;;;;;;;;;;;4164635;28;7395;-52
2021/12/08 07:24:31;;;;;;;;;;;;;;;;;;4164489;28;7015;-51
2021/12/08 07:26:53;;;;;;;;;;;;;;;;;;4164200;28;7154;-51
2021/12/08 07:29:16;;;;;;;;;;;;;;;;;;4164546;28;6999;-51
2021/12/08 07:31:38;;;;;;;;;;;;;;;;;;4164211;28;7018;-51
2021/12/08 07:34:04;;;;;;;;;;;;;;;;;;4164271;28;7089;-51
2021/12/08 07:36:25;;;;;;;;;;;;;;;;;;4164317;28;7088;-52
2021/12/08 07:38:50;;;;;;;;;;;;;;;;;;4164462;28;6990;-51
2021/12/08 07:41:12;;;;;;;;;;;;;;;;;;4164252;28;7021;-51
2021/12/08 07:43:33;;;;;;;;;;;;;;;;;;4177117;28;7006;-51
2021/12/08 07:46:02;;;;;;;;;;;;;;;;;;4164220;28;7015;-51
2021/12/08 07:48:25;;;;;;;;;;;;;;;;;;4164228;28;7006;-51
2021/12/08 07:50:47;;;;;;;;;;;;;;;;;;4163923;28;7010;-52
2021/12/08 07:53:08;;;;;;;;;;;;;;;;;;4164107;28;7010;-51
2021/12/08 07:55:32;;;;;;;;;;;;;;;;;;4163787;28;7014;-51
2021/12/08 07:57:53;;;;;;;;;;;;;;;;;;4164137;28;7177;-51
2021/12/08 08:00:16;;;;;;;;;;;;;;;;;;4164231;28;7006;-51
2021/12/08 08:02:37;;;;;;;;;;;;;;;;;;4164345;28;7040;-51
2021/12/08 08:04:59;;;;;;;;;;;;;;;;;;4164133;28;7374;-51
2021/12/08 08:07:21;;;;;;;;;;;;;;;;;;4164194;28;7850;-50
2021/12/08 08:09:43;;;;;;;;;;;;;;;;;;4167649;28;7093;-50
2021/12/08 08:12:07;;;;;;;;;;;;;;;;;;4167714;28;7346;-50
2021/12/08 08:14:29;;;;;;;;;;;;;;;;;;4167318;28;7084;-51
2021/12/08 08:16:55;;;;;;;;;;;;;;;;;;4167556;28;7066;-51
2021/12/08 08:19:18;;;;;;;;;;;;;;;;;;4167237;28;7002;-53
2021/12/08 08:21:40;;;;;;;;;;;;;;;;;;4167470;28;7015;-52
2021/12/08 08:24:02;;;;;;;;;;;;;;;;;;4167872;28;7161;-51
2021/12/08 08:26:23;;;;;;;;;;;;;;;;;;4167346;28;7422;-51
2021/12/08 08:28:50;;;;;;;;;;;;;;;;;;4167220;28;6986;-51
2021/12/08 08:31:12;;;;;;;;;;;;;;;;;;4167224;28;7026;-51
2021/12/08 08:33:34;;;;;;;;;;;;;;;;;;4166919;28;6990;-51
2021/12/08 08:35:55;;;;;;;;;;;;;;;;;;4165943;28;6990;-52
2021/12/08 08:38:18;;;;;;;;;;;;;;;;;;4167084;28;7144;-51
2021/12/08 08:40:40;;;;;;;;;;;;;;;;;;4167017;28;6994;-50
2021/12/08 08:43:01;;;;;;;;;;;;;;;;;;4166983;28;7029;-51
2021/12/08 08:45:25;;;;;;;;;;;;;;;;;;4166954;28;7003;-51
2021/12/08 08:47:47;;;;;;;;;;;;;;;;;;4166686;28;7033;-51
2021/12/08 08:50:10;;;;;;;;;;;;;;;;;;4166912;28;6994;-51
2021/12/08 08:52:32;;;;;;;;;;;;;;;;;;4166678;28;7019;-51
2021/12/08 08:54:54;;;;;;;;;;;;;;;;;;4166619;28;7216;-51
2021/12/08 08:57:17;;;;;;;;;;;;;;;;;;4171941;28;7195;-50
2021/12/08 08:59:40;;;;;;;;;;;;;;;;;;4166535;28;7026;-51
2021/12/08 09:02:07;;;;;;;;;;;;;;;;;;4166368;28;7151;-51
2021/12/08 09:04:30;;;;;;;;;;;;;;;;;;4166256;28;7204;-51
2021/12/08 09:06:51;;;;;;;;;;;;;;;;;;4166622;28;6990;-52
2021/12/08 09:09:13;;;;;;;;;;;;;;;;;;4166514;28;6978;-50
2021/12/08 09:11:35;;;;;;;;;;;;;;;;;;4151110;28;7065;-51
2021/12/08 09:14:00;;;;;;;;;;;;;;;;;;4155886;28;7254;-50
2021/12/08 09:16:22;;;;;;;;;;;;;;;;;;4168413;28;7019;-50
2021/12/08 09:18:51;;;;;;;;;;;;;;;;;;4182477;28;7009;-50
2021/12/08 09:21:16;;;;;;;;;;;;;;;;;;4182903;28;6982;-52
2021/12/08 09:23:38;;;;;;;;;;;;;;;;;;4182884;28;6974;-51
2021/12/08 09:26:00;;;;;;;;;;;;;;;;;;4172229;28;6989;-51
2021/12/08 09:28:24;;;;;;;;;;;;;;;;;;4166037;28;7030;-50
2021/12/08 09:30:46;;;;;;;;;;;;;;;;;;4166174;28;6986;-51
2021/12/08 09:33:08;;;;;;;;;;;;;;;;;;4165827;28;7002;-50
2021/12/08 09:35:31;;;;;;;;;;;;;;;;;;4165813;28;7101;-51
2021/12/08 09:37:53;;;;;;;;;;;;;;;;;;4166225;28;7041;-51
2021/12/08 09:40:16;;;;;;;;;;;;;;;;;;4161452;28;7022;-51
2021/12/08 09:42:39;;;;;;;;;;;;;;;;;;4149396;28;6986;-52
2021/12/08 09:45:02;;;;;;;;;;;;;;;;;;4149373;28;7019;-51
2021/12/08 09:47:28;;;;;;;;;;;;;;;;;;4149499;28;7015;-50
2021/12/08 09:49:50;;;;;;;;;;;;;;;;;;4150375;28;7062;-51
2021/12/08 09:52:12;;;;;;;;;;;;;;;;;;4162411;28;7143;-51
2021/12/08 09:54:33;;;;;;;;;;;;;;;;;;4165575;28;7410;-50
2021/12/08 09:56:54;;;;;;;;;;;;;;;;;;4149476;28;7114;-51
2021/12/08 09:59:16;;;;;;;;;;;;;;;;;;4149173;28;7462;-51
2021/12/08 10:01:39;;;;;;;;;;;;;;;;;;4149070;28;7515;-51
2021/12/08 10:04:01;;;;;;;;;;;;;;;;;;4149109;28;7411;-51
2021/12/08 10:06:23;;;;;;;;;;;;;;;;;;4149336;28;6994;-50
2021/12/08 10:08:46;;;;;;;;;;;;;;;;;;4149005;28;7137;-51
2021/12/08 10:11:07;;;;;;;;;;;;;;;;;;4148807;28;7077;-51
2021/12/08 10:13:28;;;;;;;;;;;;;;;;;;4149112;28;7434;-51
2021/12/08 10:15:49;;;;;;;;;;;;;;;;;;4148750;28;7010;-52
2021/12/08 10:18:11;;;;;;;;;;;;;;;;;;4149105;28;7140;-52
2021/12/08 10:20:32;;;;;;;;;;;;;;;;;;4149006;28;7006;-51
2021/12/08 10:23:14;;;;;;;;;;;;;;;;;;4148797;28;7030;-51
2021/12/08 10:25:37;;;;;;;;;;;;;;;;;;4155812;28;7081;-51
2021/12/08 10:28:06;;;;;;;;;;;;;;;;;;4165115;28;7041;-51
2021/12/08 10:30:27;;;;;;;;;;;;;;;;;;4164879;28;7172;-50
2021/12/08 10:32:49;;;;;;;;;;;;;;;;;;4165173;28;7050;-52
2021/12/08 10:35:13;;;;;;;;;;;;;;;;;;4165102;28;7006;-51
2021/12/08 10:37:34;;;;;;;;;;;;;;;;;;4165126;28;7019;-52
2021/12/08 10:39:59;;;;;;;;;;;;;;;;;;4163200;28;7121;-51
2021/12/08 10:42:22;;;;;;;;;;;;;;;;;;4148824;28;7006;-51
2021/12/08 10:44:50;;;;;;;;;;;;;;;;;;4148652;28;7431;-51
2021/12/08 10:47:12;;;;;;;;;;;;;;;;;;4148587;28;7073;-51
2021/12/08 10:54:51;;;;;;;;;;;;;;;;;;4148202;28;7340;-51
2021/12/08 10:57:24;;;;;;;;;;;;;;;;;;4148349;28;7007;-51
2021/12/08 10:59:52;;;;;;;;;;;;;;;;;;4148456;28;7006;-51
2021/12/08 11:02:28;;;;;;;;;;;;;;;;;;4148474;28;6983;-51
2021/12/08 11:04:49;;;;;;;;;;;;;;;;;;4148138;28;7026;-50
2021/12/08 11:07:11;;;;;;;;;;;;;;;;;;4148069;28;7015;-51
2021/12/08 11:09:39;;;;;;;;;;;;;;;;;;4148139;28;7046;-50
2021/12/08 11:12:03;;;;;;;;;;;;;;;;;;4153382;28;7006;-51
2021/12/08 11:14:26;;;;;;;;;;;;;;;;;;4164372;28;7172;-50
2021/12/08 11:16:47;;;;;;;;;;;;;;;;;;4164389;28;6990;-52
2021/12/08 11:19:10;;;;;;;;;;;;;;;;;;4164684;28;7033;-51
2021/12/08 11:21:36;;;;;;;;;;;;;;;;;;4164219;28;7128;-51
2021/12/08 11:23:59;;;;;;;;;;;;;;;;;;4164334;28;7002;-51
2021/12/08 11:26:21;;;;;;;;;;;;;;;;;;4151110;28;7154;-51
2021/12/08 11:28:42;;;;;;;;;;;;;;;;;;4148071;28;7544;-51
2021/12/08 11:31:06;;;;;;;;;;;;;;;;;;4148108;28;7007;-51
2021/12/08 11:33:27;;;;;;;;;;;;;;;;;;4147691;28;7160;-51
2021/12/08 11:35:48;;;;;;;;;;;;;;;;;;4147753;28;7165;-51
2021/12/08 11:38:09;;;;;;;;;;;;;;;;;;4148176;28;6998;-51
2021/12/08 11:40:33;;;;;;;;;;;;;;;;;;4154034;28;7395;-52
2021/12/08 11:42:54;;;;;;;;;;;;;;;;;;4163494;28;7006;-50
2021/12/08 11:45:16;;;;;;;;;;;;;;;;;;4162885;28;7727;-50
2021/12/08 11:47:40;;;;;;;;;;;;;;;;;;4152751;28;7022;-51
2021/12/08 11:50:02;;;;;;;;;;;;;;;;;;4149891;28;7166;-51
2021/12/08 11:52:24;;;;;;;;;;;;;;;;;;4164049;28;6999;-51
2021/12/08 11:54:48;;;;;;;;;;;;;;;;;;4163980;28;7179;-51
2021/12/08 11:57:11;;;;;;;;;;;;;;;;;;4164068;28;7433;-50
2021/12/08 11:59:32;;;;;;;;;;;;;;;;;;4164169;28;7155;-51
2021/12/08 12:01:53;;;;;;;;;;;;;;;;;;4163861;28;6982;-51
2021/12/08 12:04:16;;;;;;;;;;;;;;;;;;4163976;28;7101;-51
2021/12/08 12:06:37;;;;;;;;;;;;;;;;;;4163934;28;7135;-51
2021/12/08 12:08:59;;;;;;;;;;;;;;;;;;4164065;28;6990;-50
2021/12/08 12:11:20;;;;;;;;;;;;;;;;;;4163699;28;7065;-51
2021/12/08 12:13:41;;;;;;;;;;;;;;;;;;4163807;28;7175;-51
2021/12/08 12:16:03;;;;;;;;;;;;;;;;;;4163675;28;7014;-50
2021/12/08 12:18:24;;;;;;;;;;;;;;;;;;4163805;28;7055;-51
2021/12/08 12:20:47;;;;;;;;;;;;;;;;;;4164013;28;7006;-51
2021/12/08 12:23:13;;;;;;;;;;;;;;;;;;4163812;28;7010;-51
2021/12/08 12:25:37;;;;;;;;;;;;;;;;;;4163458;28;7002;-52
2021/12/08 12:28:09;;;;;;;;;;;;;;;;;;4163734;28;6994;-51
2021/12/08 12:30:33;;;;;;;;;;;;;;;;;;4164036;28;7030;-51
2021/12/08 12:32:54;;;;;;;;;;;;;;;;;;4163834;28;7006;-51
2021/12/08 12:35:18;;;;;;;;;;;;;;;;;;4163822;28;6958;-51
2021/12/08 12:37:40;;;;;;;;;;;;;;;;;;4163644;28;6994;-51
2021/12/08 12:40:02;;;;;;;;;;;;;;;;;;4161112;28;7030;-51
2021/12/08 12:42:24;;;;;;;;;;;;;;;;;;4149779;28;7002;-51
2021/12/08 12:44:45;;;;;;;;;;;;;;;;;;4163441;28;7194;-50
2021/12/08 12:47:16;;;;;;;;;;;;;;;;;;4163586;28;7006;-51
2021/12/08 12:49:37;;;;;;;;;;;;;;;;;;4163512;28;7018;-51
2021/12/08 12:51:59;;;;;;;;;;;;;;;;;;4146925;28;7006;-51
2021/12/08 12:54:25;;;;;;;;;;;;;;;;;;4148813;28;7043;-51
2021/12/08 12:56:50;;;;;;;;;;;;;;;;;;4150176;28;7235;-51
2021/12/08 12:59:15;;;;;;;;;;;;;;;;;;4150041;28;7046;-51
2021/12/08 13:01:43;;;;;;;;;;;;;;;;;;4150198;28;7030;-51
2021/12/08 13:04:08;;;;;;;;;;;;;;;;;;4150072;28;7026;-51
2021/12/08 13:06:40;;;;;;;;;;;;;;;;;;4150090;28;7010;-51
2021/12/08 13:09:01;;;;;;;;;;;;;;;;;;4149785;28;7058;-51
2021/12/08 13:11:41;;;;;;;;;;;;;;;;;;4149802;28;7158;-51
2021/12/08 13:14:03;;;;;;;;;;;;;;;;;;4149928;28;7003;-51
2021/12/08 13:16:24;;;;;;;;;;;;;;;;;;4175159;28;7164;-50
2021/12/08 13:18:53;;;;;;;;;;;;;;;;;;4182503;28;7156;-51
2021/12/08 13:21:14;;;;;;;;;;;;;;;;;;4182675;28;7006;-51
2021/12/08 13:23:37;;;;;;;;;;;;;;;;;;4182689;28;7390;-51
2021/12/08 13:26:01;;;;;;;;;;;;;;;;;;4172439;28;6974;-51
2021/12/08 13:28:28;;;;;;;;;;;;;;;;;;4166493;28;6998;-51
2021/12/08 13:30:51;;;;;;;;;;;;;;;;;;4166265;28;7006;-51
2021/12/08 13:33:21;;;;;;;;;;;;;;;;;;4165854;28;7077;-51
2021/12/08 13:35:43;;;;;;;;;;;;;;;;;;4165933;28;7058;-51
2021/12/08 13:38:04;;;;;;;;;;;;;;;;;;4165554;28;7006;-51
2021/12/08 13:40:40;;;;;;;;;;;;;;;;;;4165755;28;7177;-51
2021/12/08 13:43:05;;;;;;;;;;;;;;;;;;4166023;28;7147;-51
2021/12/08 13:45:28;;;;;;;;;;;;;;;;;;4166029;28;7002;-50
2021/12/08 13:47:50;;;;;;;;;;;;;;;;;;4166057;28;7143;-51
2021/12/08 13:50:11;;;;;;;;;;;;;;;;;;4165797;28;7175;-51
2021/12/08 13:52:33;;;;;;;;;;;;;;;;;;4165867;28;7006;-50
2021/12/08 13:54:54;;;;;;;;;;;;;;;;;;4164012;28;7582;-51
2021/12/08 13:57:28;;;;;;;;;;;;;;;;;;4149157;28;7011;-50
2021/12/08 13:59:56;;;;;;;;;;;;;;;;;;4149166;28;7163;-51
2021/12/08 14:02:22;;;;;;;;;;;;;;;;;;4149149;28;7034;-51
2021/12/08 14:04:43;;;;;;;;;;;;;;;;;;4149190;28;7246;-51
2021/12/08 14:07:05;;;;;;;;;;;;;;;;;;4148953;28;6986;-51
2021/12/08 14:09:26;;;;;;;;;;;;;;;;;;4149024;28;7011;-51
2021/12/08 14:11:50;;;;;;;;;;;;;;;;;;4149436;28;7010;-51
2021/12/08 14:14:12;;;;;;;;;;;;;;;;;;4149327;28;7007;-51
2021/12/08 14:16:33;;;;;;;;;;;;;;;;;;4148883;28;7121;-51
2021/12/08 14:18:55;;;;;;;;;;;;;;;;;;4148892;28;6998;-51
2021/12/08 14:21:19;;;;;;;;;;;;;;;;;;4148811;28;7006;-51
2021/12/08 14:23:42;;;;;;;;;;;;;;;;;;4149006;28;7006;-51
2021/12/08 14:26:03;;;;;;;;;;;;;;;;;;4159547;28;6990;-51
2021/12/08 14:28:29;;;;;;;;;;;;;;;;;;4165318;28;7077;-51
2021/12/08 14:30:50;;;;;;;;;;;;;;;;;;4165108;28;7015;-51
2021/12/08 14:33:11;;;;;;;;;;;;;;;;;;4164702;28;7049;-51
2021/12/08 14:35:36;;;;;;;;;;;;;;;;;;4165137;28;7154;-52
2021/12/08 14:38:01;;;;;;;;;;;;;;;;;;4165133;28;7104;-51
2021/12/08 14:40:22;;;;;;;;;;;;;;;;;;4159625;28;7019;-52
2021/12/08 14:42:44;;;;;;;;;;;;;;;;;;4148620;28;7002;-50
2021/12/08 14:45:07;;;;;;;;;;;;;;;;;;4148570;28;7010;-51
2021/12/08 14:47:30;;;;;;;;;;;;;;;;;;4148652;28;7006;-51
2021/12/08 14:49:53;;;;;;;;;;;;;;;;;;4149064;28;7431;-51
2021/12/08 14:52:17;;;;;;;;;;;;;;;;;;4163870;28;7092;-51
2021/12/08 14:54:39;;;;;;;;;;;;;;;;;;4164400;28;7022;-51
2021/12/08 14:57:05;;;;;;;;;;;;;;;;;;4161310;28;7105;-51
2021/12/08 14:59:26;;;;;;;;;;;;;;;;;;4148115;28;7026;-51
2021/12/08 15:01:47;;;;;;;;;;;;;;;;;;4148025;28;7129;-51
2021/12/08 15:04:08;;;;;;;;;;;;;;;;;;4148295;28;6998;-51
2021/12/08 15:06:29;;;;;;;;;;;;;;;;;;4148032;28;7066;-51
2021/12/08 15:08:52;;;;;;;;;;;;;;;;;;4147937;28;7184;-51
2021/12/08 15:11:17;;;;;;;;;;;;;;;;;;4148026;28;7006;-51
2021/12/08 15:13:38;;;;;;;;;;;;;;;;;;4148205;28;7018;-51
2021/12/08 15:16:00;;;;;;;;;;;;;;;;;;4147963;28;7199;-51
2021/12/08 15:18:21;;;;;;;;;;;;;;;;;;4147123;28;7045;-51
2021/12/08 15:20:46;;;;;;;;;;;;;;;;;;4148259;28;7156;-51
2021/12/08 15:23:11;;;;;;;;;;;;;;;;;;4148195;28;7008;-51
2021/12/08 15:25:34;;;;;;;;;;;;;;;;;;4154491;28;7062;-50
2021/12/08 15:27:56;;;;;;;;;;;;;;;;;;4164487;28;7107;-52
2021/12/08 15:30:18;;;;;;;;;;;;;;;;;;4164356;28;7002;-51
2021/12/08 15:32:39;;;;;;;;;;;;;;;;;;4164358;28;6974;-51
2021/12/08 15:35:04;;;;;;;;;;;;;;;;;;4163960;28;7006;-53
2021/12/08 15:37:26;;;;;;;;;;;;;;;;;;4164055;28;7007;-51
2021/12/08 15:39:52;;;;;;;;;;;;;;;;;;4163892;28;7167;-51
2021/12/08 15:42:15;;;;;;;;;;;;;;;;;;4164251;28;7569;-50
2021/12/08 15:44:37;;;;;;;;;;;;;;;;;;4164179;28;7006;-51
2021/12/08 15:46:58;;;;;;;;;;;;;;;;;;4164130;28;7081;-51
2021/12/08 15:49:20;;;;;;;;;;;;;;;;;;4163859;28;7026;-51
2021/12/08 15:51:42;;;;;;;;;;;;;;;;;;4164047;28;6986;-51
2021/12/08 15:54:03;;;;;;;;;;;;;;;;;;4163947;28;7006;-51
2021/12/08 15:56:24;;;;;;;;;;;;;;;;;;4156963;28;7030;-51
2021/12/08 15:58:47;;;;;;;;;;;;;;;;;;4147521;28;7017;-52
2021/12/08 16:01:09;;;;;;;;;;;;;;;;;;4146528;28;7227;-51
2021/12/08 16:03:38;;;;;;;;;;;;;;;;;;4147606;28;6982;-51
2021/12/08 16:06:11;;;;;;;;;;;;;;;;;;4162470;28;7105;-51
2021/12/08 16:08:33;;;;;;;;;;;;;;;;;;4147625;28;7049;-51
2021/12/08 16:10:54;;;;;;;;;;;;;;;;;;4157083;28;7088;-50
2021/12/08 16:13:18;;;;;;;;;;;;;;;;;;4163769;28;7375;-51
2021/12/08 16:15:42;;;;;;;;;;;;;;;;;;4163824;28;6994;-51
2021/12/08 16:18:03;;;;;;;;;;;;;;;;;;4163288;28;7045;-50
2021/12/08 16:20:27;;;;;;;;;;;;;;;;;;4163907;28;7024;-51
2021/12/08 16:22:48;;;;;;;;;;;;;;;;;;4176404;28;6995;-51
2021/12/08 16:25:10;;;;;;;;;;;;;;;;;;4147108;28;6986;-51
2021/12/08 16:27:31;;;;;;;;;;;;;;;;;;4147342;28;7611;-51
2021/12/08 16:29:52;;;;;;;;;;;;;;;;;;4150041;28;7002;-51
2021/12/08 16:32:16;;;;;;;;;;;;;;;;;;4149275;28;7154;-50
2021/12/08 16:34:37;;;;;;;;;;;;;;;;;;4150506;28;7180;-51
2021/12/08 16:36:58;;;;;;;;;;;;;;;;;;4150604;28;6986;-51
2021/12/08 16:39:24;;;;;;;;;;;;;;;;;;4150197;28;7109;-51
2021/12/08 16:44:25;;;;;;;;;;;;;;;;;;4166003;28;7010;-50
2021/12/08 16:46:46;;;;;;;;;;;;;;;;;;4166152;28;7011;-50
2021/12/08 16:49:08;;;;;;;;;;;;;;;;;;4165523;28;7033;-50
2021/12/08 16:51:30;;;;;;;;;;;;;;;;;;4165718;28;7022;-51
2021/12/08 16:53:53;;;;;;;;;;;;;;;;;;4165776;28;7019;-50
2021/12/08 16:56:14;;;;;;;;;;;;;;;;;;4152683;28;7010;-50
2021/12/08 16:58:36;;;;;;;;;;;;;;;;;;4150075;28;7147;-51
2021/12/08 17:00:58;;;;;;;;;;;;;;;;;;4149532;28;7093;-50
2021/12/08 17:03:19;;;;;;;;;;;;;;;;;;4149295;28;6998;-50
2021/12/08 17:05:42;;;;;;;;;;;;;;;;;;4149762;28;7002;-51
2021/12/08 17:08:05;;;;;;;;;;;;;;;;;;4149760;28;6990;-50